Time,TemperatureF,DewpointF,PressureIn,WindDirection,WindDirectionDegrees,WindSpeedMPH,WindSpeedGustMPH,Humidity,HourlyPrecipIn,Conditions,Clouds,dailyrainin,SolarRadiationWatts/m^2,SoftwareType,DateUTC
2013-01-09 00:01:00,49.2,46.0,29.85,West,271,0.0,-999.0,89,-99.99,,,0.00,0,weatherlink.com 1.10,2013-01-08 22:01:00,
2013-01-09 00:16:00,49.1,46.0,29.85,West,275,0.0,-999.0,89,-99.99,,,0.00,0,weatherlink.com 1.10,2013-01-08 22:16:00,
2013-01-09 00:31:00,48.8,46.0,29.85,West,271,1.0,-999.0,89,-99.99,,,0.00,0,weatherlink.com 1.10,2013-01-08 22:31:00,
2013-01-09 00:46:00,48.7,46.0,29.86,West,260,3.0,-999.0,89,-99.99,,,0.01,0,weatherlink.com 1.10,2013-01-08 22:46:00,
2013-01-09 01:02:00,48.9,46.0,29.85,WNW,299,1.0,-999.0,89,-99.99,,,0.01,0,weatherlink.com 1.10,2013-01-08 23:02:00,
2013-01-09 01:17:00,48.9,46.0,29.85,SW,230,0.0,-999.0,89,-99.99,,,0.02,0,weatherlink.com 1.10,2013-01-08 23:17:00,
2013-01-09 01:32:00,49.0,46.0,29.85,West,279,2.0,-999.0,89,-99.99,,,0.03,0,weatherlink.com 1.10,2013-01-08 23:32:00,
2013-01-09 01:47:00,49.2,46.0,29.85,WSW,258,4.0,-999.0,89,-99.99,,,0.06,0,weatherlink.com 1.10,2013-01-08 23:47:00,
2013-01-09 02:02:00,48.9,46.0,29.85,WSW,254,0.0,-999.0,89,-99.99,,,0.06,0,weatherlink.com 1.10,2013-01-09 00:02:00,
2013-01-09 02:17:00,48.8,46.0,29.85,SSW,205,3.0,-999.0,90,-99.99,,,0.09,0,weatherlink.com 1.10,2013-01-09 00:17:00,
2013-01-09 02:32:00,48.9,46.0,29.84,WNW,283,2.0,-999.0,90,-99.99,,,0.10,0,weatherlink.com 1.10,2013-01-09 00:32:00,
2013-01-09 02:47:00,48.8,46.0,29.84,West,263,1.0,-999.0,90,-99.99,,,0.10,0,weatherlink.com 1.10,2013-01-09 00:47:00,
2013-01-09 03:02:00,48.8,46.0,29.84,West,267,2.0,-999.0,90,-99.99,,,0.13,0,weatherlink.com 1.10,2013-01-09 01:02:00,
2013-01-09 03:17:00,48.9,46.0,29.83,WNW,300,1.0,-999.0,90,-99.99,,,0.14,0,weatherlink.com 1.10,2013-01-09 01:17:00,
2013-01-09 03:32:00,48.9,46.0,29.83,SSW,213,2.0,-999.0,90,-99.99,,,0.14,0,weatherlink.com 1.10,2013-01-09 01:32:00,
2013-01-09 03:56:00,48.8,46.0,29.82,WSW,239,0.0,-999.0,89,-99.99,,,0.17,0,weatherlink.com 1.10,2013-01-09 01:56:00,
2013-01-09 04:02:00,48.8,46.0,29.81,West,269,5.0,-999.0,89,-99.99,,,0.17,0,weatherlink.com 1.10,2013-01-09 02:02:00,
2013-01-09 04:17:00,48.7,45.0,29.81,West,265,7.0,-999.0,88,-99.99,,,0.17,0,weatherlink.com 1.10,2013-01-09 02:17:00,
2013-01-09 04:32:00,49.3,45.0,29.81,WNW,290,4.0,-999.0,85,-99.99,,,0.17,0,weatherlink.com 1.10,2013-01-09 02:32:00,
2013-01-09 04:48:00,50.2,45.0,29.82,West,270,3.0,-999.0,82,-99.99,,,0.17,0,weatherlink.com 1.10,2013-01-09 02:48:00,
2013-01-09 05:18:00,51.8,43.0,29.82,West,280,4.0,-999.0,71,-99.99,,,0.17,0,weatherlink.com 1.10,2013-01-09 03:18:00,
2013-01-09 05:33:00,52.3,42.0,29.83,West,279,8.0,-999.0,68,-99.99,,,0.17,0,weatherlink.com 1.10,2013-01-09 03:33:00,
2013-01-09 05:48:00,52.6,41.0,29.83,West,264,2.0,-999.0,64,-99.99,,,0.17,0,weatherlink.com 1.10,2013-01-09 03:48:00,
2013-01-09 06:03:00,52.9,41.0,29.84,South,184,1.0,-999.0,64,-99.99,,,0.17,0,weatherlink.com 1.10,2013-01-09 04:03:00,
2013-01-09 06:18:00,52.9,41.0,29.85,South,175,2.0,-999.0,65,-99.99,,,0.17,0,weatherlink.com 1.10,2013-01-09 04:18:00,
2013-01-09 06:33:00,52.7,40.0,29.86,SW,228,2.0,-999.0,63,-99.99,,,0.17,0,weatherlink.com 1.10,2013-01-09 04:33:00,
2013-01-09 06:48:00,52.6,42.0,29.86,SSW,202,2.0,-999.0,68,-99.99,,,0.17,0,weatherlink.com 1.10,2013-01-09 04:48:00,
2013-01-09 07:04:00,52.2,43.0,29.87,WNW,288,3.0,-999.0,71,-99.99,,,0.17,0,weatherlink.com 1.10,2013-01-09 05:04:00,
2013-01-09 07:18:00,51.5,42.0,29.87,WSW,238,3.0,-999.0,71,-99.99,,,0.17,5,weatherlink.com 1.10,2013-01-09 05:18:00,
2013-01-09 07:33:00,51.8,43.0,29.88,WSW,257,4.0,-999.0,72,-99.99,,,0.17,32,weatherlink.com 1.10,2013-01-09 05:33:00,
2013-01-09 07:48:00,51.4,42.0,29.89,WSW,242,2.0,-999.0,70,-99.99,,,0.17,47,weatherlink.com 1.10,2013-01-09 05:48:00,
2013-01-09 08:03:00,51.4,42.0,29.89,West,269,5.0,-999.0,70,-99.99,,,0.17,44,weatherlink.com 1.10,2013-01-09 06:03:00,
2013-01-09 08:18:00,51.3,40.0,29.89,West,271,5.0,-999.0,66,-99.99,,,0.17,91,weatherlink.com 1.10,2013-01-09 06:18:00,
2013-01-09 08:33:00,52.4,41.0,29.89,WSW,250,5.0,-999.0,65,-99.99,,,0.17,149,weatherlink.com 1.10,2013-01-09 06:33:00,
2013-01-09 08:48:00,52.7,41.0,29.90,WSW,240,2.0,-999.0,65,-99.99,,,0.17,93,weatherlink.com 1.10,2013-01-09 06:48:00,
2013-01-09 09:03:00,52.7,40.0,29.91,West,279,4.0,-999.0,63,-99.99,,,0.17,230,weatherlink.com 1.10,2013-01-09 07:03:00,
2013-01-09 09:18:00,53.4,40.0,29.91,NW,325,2.0,-999.0,62,-99.99,,,0.17,93,weatherlink.com 1.10,2013-01-09 07:18:00,
2013-01-09 09:33:00,53.4,40.0,29.91,West,273,5.0,-999.0,61,-99.99,,,0.17,58,weatherlink.com 1.10,2013-01-09 07:33:00,
2013-01-09 09:48:00,53.1,42.0,29.92,SW,225,3.0,-999.0,65,-99.99,,,0.17,21,weatherlink.com 1.10,2013-01-09 07:48:00,
2013-01-09 10:03:00,51.9,42.0,29.91,SW,235,5.0,-999.0,69,-99.99,,,0.17,93,weatherlink.com 1.10,2013-01-09 08:03:00,
2013-01-09 10:18:00,51.0,41.0,29.91,West,281,10.0,-999.0,69,-99.99,,,0.18,95,weatherlink.com 1.10,2013-01-09 08:18:00,
2013-01-09 10:33:00,52.2,42.0,29.91,WSW,249,4.0,-999.0,68,-99.99,,,0.18,216,weatherlink.com 1.10,2013-01-09 08:33:00,
2013-01-09 10:48:00,52.9,40.0,29.90,SW,227,4.0,-999.0,62,-99.99,,,0.18,598,weatherlink.com 1.10,2013-01-09 08:48:00,
2013-01-09 11:03:00,55.9,40.0,29.89,SSE,151,4.0,-999.0,55,-99.99,,,0.18,193,weatherlink.com 1.10,2013-01-09 09:03:00,
2013-01-09 11:18:00,54.9,41.0,29.90,WSW,258,6.0,-999.0,61,-99.99,,,0.18,229,weatherlink.com 1.10,2013-01-09 09:18:00,
2013-01-09 11:33:00,53.5,43.0,29.90,NNW,339,6.0,-999.0,68,-99.99,,,0.18,237,weatherlink.com 1.10,2013-01-09 09:33:00,
2013-01-09 11:48:00,52.6,43.0,29.90,SW,218,2.0,-999.0,69,-99.99,,,0.18,190,weatherlink.com 1.10,2013-01-09 09:48:00,
2013-01-09 12:03:00,53.0,43.0,29.89,West,268,8.0,-999.0,70,-99.99,,,0.18,236,weatherlink.com 1.10,2013-01-09 10:03:00,
2013-01-09 12:18:00,53.8,44.0,29.90,WSW,249,7.0,-999.0,70,-99.99,,,0.18,587,weatherlink.com 1.10,2013-01-09 10:18:00,
2013-01-09 12:33:00,53.7,43.0,29.89,WNW,282,8.0,-999.0,68,-99.99,,,0.18,179,weatherlink.com 1.10,2013-01-09 10:33:00,
2013-01-09 12:48:00,52.8,42.0,29.88,SSE,165,2.0,-999.0,66,-99.99,,,0.18,127,weatherlink.com 1.10,2013-01-09 10:48:00,
2013-01-09 13:03:00,53.1,42.0,29.88,SW,234,4.0,-999.0,65,-99.99,,,0.18,102,weatherlink.com 1.10,2013-01-09 11:03:00,
2013-01-09 13:18:00,53.0,41.0,29.89,WSW,243,2.0,-999.0,64,-99.99,,,0.18,211,weatherlink.com 1.10,2013-01-09 11:18:00,
2013-01-09 13:33:00,55.5,41.0,29.89,WSW,250,3.0,-999.0,58,-99.99,,,0.18,200,weatherlink.com 1.10,2013-01-09 11:33:00,
2013-01-09 13:48:00,55.3,38.0,29.89,WSW,251,4.0,-999.0,53,-99.99,,,0.18,69,weatherlink.com 1.10,2013-01-09 11:48:00,
2013-01-09 14:03:00,53.3,39.0,29.90,West,270,3.0,-999.0,59,-99.99,,,0.18,93,weatherlink.com 1.10,2013-01-09 12:03:00,
2013-01-09 14:18:00,51.9,40.0,29.91,WNW,291,12.0,-999.0,64,-99.99,,,0.18,179,weatherlink.com 1.10,2013-01-09 12:18:00,
2013-01-09 14:33:00,53.0,41.0,29.90,South,175,8.0,-999.0,63,-99.99,,,0.18,120,weatherlink.com 1.10,2013-01-09 12:33:00,
2013-01-09 14:48:00,53.1,40.0,29.91,WSW,252,2.0,-999.0,62,-99.99,,,0.18,359,weatherlink.com 1.10,2013-01-09 12:48:00,
2013-01-09 15:03:00,52.6,41.0,29.92,SW,218,14.0,-999.0,65,-99.99,,,0.19,39,weatherlink.com 1.10,2013-01-09 13:03:00,
2013-01-09 15:18:00,50.9,42.0,29.91,NW,311,10.0,-999.0,71,-99.99,,,0.20,221,weatherlink.com 1.10,2013-01-09 13:18:00,
2013-01-09 15:34:00,50.0,41.0,29.91,WNW,284,3.0,-999.0,72,-99.99,,,0.20,19,weatherlink.com 1.10,2013-01-09 13:34:00,
2013-01-09 15:48:00,49.7,40.0,29.91,West,265,3.0,-999.0,69,-99.99,,,0.20,49,weatherlink.com 1.10,2013-01-09 13:48:00,
2013-01-09 16:04:00,50.8,41.0,29.91,SW,215,3.0,-999.0,68,-99.99,,,0.20,72,weatherlink.com 1.10,2013-01-09 14:04:00,
2013-01-09 16:19:00,49.1,40.0,29.92,West,267,8.0,-999.0,72,-99.99,,,0.25,49,weatherlink.com 1.10,2013-01-09 14:19:00,
2013-01-09 16:34:00,47.6,41.0,29.93,NW,316,9.0,-999.0,77,-99.99,,,0.26,16,weatherlink.com 1.10,2013-01-09 14:34:00,
2013-01-09 16:49:00,46.8,40.0,29.93,West,262,3.0,-999.0,78,-99.99,,,0.26,0,weatherlink.com 1.10,2013-01-09 14:49:00,
2013-01-09 17:04:00,46.4,41.0,29.94,WSW,251,3.0,-999.0,80,-99.99,,,0.26,0,weatherlink.com 1.10,2013-01-09 15:04:00,
2013-01-09 17:19:00,46.7,40.0,29.95,WSW,249,5.0,-999.0,76,-99.99,,,0.26,0,weatherlink.com 1.10,2013-01-09 15:19:00,
2013-01-09 17:34:00,47.3,40.0,29.97,SW,217,1.0,-999.0,76,-99.99,,,0.26,0,weatherlink.com 1.10,2013-01-09 15:34:00,
2013-01-09 17:49:00,46.4,39.0,29.97,SW,236,7.0,-999.0,76,-99.99,,,0.26,0,weatherlink.com 1.10,2013-01-09 15:49:00,
2013-01-09 18:04:00,45.9,39.0,29.98,NW,306,0.0,-999.0,77,-99.99,,,0.26,0,weatherlink.com 1.10,2013-01-09 16:04:00,
2013-01-09 18:19:00,46.0,40.0,29.99,North,355,2.0,-999.0,79,-99.99,,,0.27,0,weatherlink.com 1.10,2013-01-09 16:19:00,
2013-01-09 18:34:00,45.0,39.0,30.00,SW,225,3.0,-999.0,80,-99.99,,,0.27,0,weatherlink.com 1.10,2013-01-09 16:34:00,
2013-01-09 18:49:00,44.4,39.0,30.01,NW,309,4.0,-999.0,81,-99.99,,,0.27,0,weatherlink.com 1.10,2013-01-09 16:49:00,
2013-01-09 19:04:00,44.1,39.0,30.01,West,275,4.0,-999.0,81,-99.99,,,0.27,0,weatherlink.com 1.10,2013-01-09 17:04:00,
2013-01-09 19:19:00,44.4,39.0,30.01,West,271,3.0,-999.0,81,-99.99,,,0.27,0,weatherlink.com 1.10,2013-01-09 17:19:00,
2013-01-09 19:34:00,44.8,39.0,30.01,West,266,3.0,-999.0,81,-99.99,,,0.28,0,weatherlink.com 1.10,2013-01-09 17:34:00,
2013-01-09 19:49:00,45.4,40.0,30.01,West,259,1.0,-999.0,82,-99.99,,,0.28,0,weatherlink.com 1.10,2013-01-09 17:49:00,
2013-01-09 20:04:00,45.2,40.0,30.02,SSW,205,2.0,-999.0,81,-99.99,,,0.28,0,weatherlink.com 1.10,2013-01-09 18:04:00,
2013-01-09 20:19:00,45.5,40.0,30.03,ESE,121,4.0,-999.0,80,-99.99,,,0.31,0,weatherlink.com 1.10,2013-01-09 18:19:00,
2013-01-09 20:34:00,44.1,39.0,30.04,West,275,3.0,-999.0,81,-99.99,,,0.31,0,weatherlink.com 1.10,2013-01-09 18:34:00,
2013-01-09 20:49:00,43.5,38.0,30.04,West,265,1.0,-999.0,82,-99.99,,,0.32,0,weatherlink.com 1.10,2013-01-09 18:49:00,
2013-01-09 21:04:00,43.3,39.0,30.04,SSW,200,0.0,-999.0,83,-99.99,,,0.32,0,weatherlink.com 1.10,2013-01-09 19:04:00,
2013-01-09 21:19:00,43.3,39.0,30.04,WSW,255,2.0,-999.0,84,-99.99,,,0.32,0,weatherlink.com 1.10,2013-01-09 19:19:00,
2013-01-09 21:34:00,43.4,39.0,30.04,West,279,0.0,-999.0,84,-99.99,,,0.32,0,weatherlink.com 1.10,2013-01-09 19:34:00,
2013-01-09 21:49:00,43.7,39.0,30.04,West,279,1.0,-999.0,84,-99.99,,,0.32,0,weatherlink.com 1.10,2013-01-09 19:49:00,
2013-01-09 22:04:00,44.0,40.0,30.05,ENE,58,4.0,-999.0,84,-99.99,,,0.34,0,weatherlink.com 1.10,2013-01-09 20:04:00,
2013-01-09 22:19:00,43.7,39.0,30.05,WSW,252,0.0,-999.0,84,-99.99,,,0.35,0,weatherlink.com 1.10,2013-01-09 20:19:00,
2013-01-09 22:34:00,43.4,39.0,30.05,WSW,252,0.0,-999.0,84,-99.99,,,0.35,0,weatherlink.com 1.10,2013-01-09 20:34:00,
2013-01-09 22:49:00,42.9,38.0,30.05,WNW,300,0.0,-999.0,84,-99.99,,,0.35,0,weatherlink.com 1.10,2013-01-09 20:49:00,
2013-01-09 23:04:00,42.5,38.0,30.05,WNW,300,0.0,-999.0,84,-99.99,,,0.35,0,weatherlink.com 1.10,2013-01-09 21:04:00,
2013-01-09 23:19:00,42.4,38.0,30.06,WNW,300,0.0,-999.0,85,-99.99,,,0.35,0,weatherlink.com 1.10,2013-01-09 21:19:00,
2013-01-09 23:34:00,42.5,38.0,30.06,WNW,285,0.0,-999.0,85,-99.99,,,0.35,0,weatherlink.com 1.10,2013-01-09 21:34:00,
2013-01-09 23:49:00,42.6,38.0,30.06,WNW,285,0.0,-999.0,85,-99.99,,,0.35,0,weatherlink.com 1.10,2013-01-09 21:49:00,